Jacobs, Texas
Current Conditions -  °F | °C
As of 1:55 PM on Friday 24 Oct 2014 (Local Time) from KRFI Reporting Station
Clear Clear  
Wind Chill: 25°   Ceiling: Unl
Heat Index: 26°   Visibility: 10mi
Dew Point: 12°   Wind: 0mph
Humidity: 44%   Direction: NA
Pressure: 30.14"   Gusts: NA
Location:  32.2818°N, 94.951°W
Report Text: KRFI 241855Z AUTO 00000KT 10SM CLR 25/12 A3014 RMK AO2 T02460115
Loading
Personal Weather Stations






























Interactive Weather Map
Tropical Storm Tracking
New forecast layout! Learn more

10-Day Weather Forecast

Advertisements
Track Severe Weather on mobile